Stations météo

Publicité
Vina Del Mar, Chili (85561): Température de l'air & dewpoint: 16.09.2018 00:00:00 - 22.09.2018 00:00:00 (CLT)Vina Del Mar, Chili (85561): Vitesse du vent: 16.09.2018 00:00:00 - 22.09.2018 00:00:00 (CLT)Vina Del Mar, Chili (85561): Direction du vent: 16.09.2018 00:00:00 - 22.09.2018 00:00:00 (CLT)Vina Del Mar, Chili (85561): visibility: 16.09.2018 00:00:00 - 22.09.2018 00:00:00 (CLT)
Date & Time tt [°C] td [°C] ff [km/h] ff [knt] dd vv [km]
22.09.2018 00:00:00 - - - - - -
21.09.2018 23:00:00 11,0 10,0 9 5 NNW 1,0
21.09.2018 22:00:00 11,0 10,0 15 8 NNW 1,0
21.09.2018 21:00:00 11,0 10,0 16 9 NNW -
21.09.2018 20:00:00 13,0 12,0 21 11 NW 2,0
21.09.2018 19:00:00 16,0 13,0 11 6 NW 10
21.09.2018 18:00:00 16,0 13,0 18 10 NW 10
21.09.2018 17:00:00 18,0 12,0 21 11 NNW 10
21.09.2018 16:00:00 19,0 13,0 18 10 NNW 10
21.09.2018 15:00:00 20,0 12,0 13 7 NNW 10
21.09.2018 14:00:00 22,0 12,0 15 8 NNW 10
21.09.2018 13:00:00 22,0 13,0 11 6 NW 10
21.09.2018 12:00:00 21,0 13,0 9 5 NNW 10
21.09.2018 11:00:00 19,0 13,0 5 3 NE 10
21.09.2018 10:00:00 15,0 11,0 4 2 N 10
21.09.2018 09:00:00 12,0 9,0 2 1 SSE 10
21.09.2018 08:00:00 11,0 9,0 11 6 SSE 10
21.09.2018 07:00:00 12,0 9,0 5 3 SE 10
21.09.2018 06:00:00 11,0 9,0 9 5 ESE 10
21.09.2018 05:00:00 12,0 8,0 8 4 SSE 10
21.09.2018 04:00:00 12,0 8,0 5 3 ESE 10
21.09.2018 03:00:00 11,0 9,0 8 4 ENE 10
21.09.2018 02:00:00 11,0 9,0 8 4 SSW 10
21.09.2018 01:00:00 11,0 9,0 0 0 N 10
21.09.2018 00:00:00 11,0 9,0 0 0 N 10
20.09.2018 23:00:00 12,0 9,0 0 0 N 10
20.09.2018 22:00:00 13,0 9,0 0 0 N 10
20.09.2018 21:00:00 13,0 10,0 0 0 N 10
20.09.2018 20:00:00 16,0 9,0 0 0 N 10
20.09.2018 19:00:00 16,0 10,0 8 4 NW 10
20.09.2018 18:00:00 18,0 11,0 11 6 NNW 10
20.09.2018 17:00:00 20,0 11,0 13 7 NNW 10
20.09.2018 16:00:00 20,0 12,0 16 9 N 10
20.09.2018 15:00:00 19,0 12,0 16 9 NNW 10
20.09.2018 14:00:00 17,0 12,0 18 10 N 10
20.09.2018 13:00:00 18,0 13,0 13 7 NNW 10
20.09.2018 12:00:00 17,0 13,0 4 2 N 10
20.09.2018 11:00:00 14,0 11,0 0 0 N 10
20.09.2018 10:00:00 12,0 10,0 0 0 N 10
20.09.2018 09:00:00 10,0 9,0 4 2 SSE 10
20.09.2018 08:00:00 10,0 9,0 0 0 N 10
20.09.2018 07:00:00 10,0 9,0 0 0 N 10
20.09.2018 06:00:00 10,0 9,0 0 0 N 10
20.09.2018 05:00:00 9,0 8,0 0 0 N 10
20.09.2018 04:00:00 9,0 8,0 5 3 SSE 10
20.09.2018 03:00:00 10,0 8,0 0 0 N 10
20.09.2018 02:00:00 9,0 8,0 0 0 N 10
20.09.2018 01:00:00 10,0 8,0 5 3 SSE 10
20.09.2018 00:00:00 11,0 9,0 8 4 SSE 10
19.09.2018 23:00:00 13,0 11,0 9 5 SSE 10
19.09.2018 22:00:00 13,0 10,0 4 2 SSE 10
19.09.2018 21:00:00 14,0 10,0 4 2 SSE 10
19.09.2018 20:00:00 15,0 11,0 8 4 SE 10
19.09.2018 19:00:00 16,0 11,0 0 0 N 10
19.09.2018 18:00:00 17,0 10,0 15 8 N 10
19.09.2018 17:00:00 17,0 9,0 9 5 NNW 10
19.09.2018 16:00:00 17,0 10,0 11 6 WNW 10
19.09.2018 15:00:00 17,0 10,0 9 5 W 10
19.09.2018 14:00:00 18,0 11,0 8 4 N 10
19.09.2018 13:00:00 17,0 12,0 9 5 NNE 10
19.09.2018 12:00:00 14,0 11,0 8 4 N 10
19.09.2018 11:00:00 12,0 11,0 5 3 E 10
19.09.2018 10:00:00 8,0 7,0 0 0 N 10
19.09.2018 09:00:00 8,0 7,0 0 0 N 10
19.09.2018 08:00:00 7,0 6,0 8 4 SE 10
19.09.2018 07:00:00 7,0 6,0 0 0 N 10
19.09.2018 06:00:00 8,0 7,0 0 0 N 10
19.09.2018 05:00:00 7,0 6,0 0 0 N 10
19.09.2018 04:00:00 8,0 7,0 0 0 N 10
19.09.2018 03:00:00 8,0 7,0 8 4 E 10
19.09.2018 02:00:00 7,0 6,0 0 0 N 10
19.09.2018 01:00:00 7,0 6,0 0 0 N 10
19.09.2018 00:00:00 8,0 6,0 0 0 N 10
18.09.2018 23:00:00 8,0 6,0 0 0 N 10
18.09.2018 22:00:00 9,0 7,0 0 0 N 10
18.09.2018 21:00:00 10,0 9,0 8 4 SW 10
18.09.2018 20:00:00 12,0 9,0 5 3 W 10
18.09.2018 19:00:00 14,0 11,0 8 4 NNW 10
18.09.2018 18:00:00 15,0 11,0 13 7 NNW 10
18.09.2018 17:00:00 15,0 13,0 11 6 W 10
18.09.2018 16:00:00 15,0 13,0 15 8 NNW 10
18.09.2018 15:00:00 13,0 11,0 13 7 W 10
18.09.2018 14:00:00 12,0 11,0 18 10 WNW 3,0
18.09.2018 13:00:00 12,0 11,0 24 13 NNW 0,4
18.09.2018 12:00:00 12,0 11,0 18 10 NNW 0,2
18.09.2018 11:00:00 12,0 11,0 13 7 NNW 0,1
18.09.2018 10:00:00 11,0 10,0 13 7 WNW 4,0
18.09.2018 09:00:00 12,0 10,0 9 5 NNW 10
18.09.2018 08:00:00 12,0 10,0 15 8 WSW 3,0
18.09.2018 07:00:00 12,0 10,0 5 3 SE 10
18.09.2018 06:00:00 11,0 10,0 5 3 SSE 10
18.09.2018 05:00:00 10,0 9,0 5 3 SE 10
18.09.2018 04:00:00 10,0 9,0 5 3 SE 8
18.09.2018 03:00:00 10,0 9,0 5 3 ESE 6
18.09.2018 02:00:00 11,0 10,0 11 6 N 6
18.09.2018 01:00:00 11,0 10,0 11 6 NNW 6
18.09.2018 00:00:00 11,0 10,0 11 6 NW 10
17.09.2018 23:00:00 11,0 10,0 5 3 N 10
17.09.2018 22:00:00 11,0 10,0 8 4 WNW 10
17.09.2018 21:00:00 11,0 10,0 11 6 WNW 10
17.09.2018 20:00:00 12,0 10,0 15 8 WNW 10
17.09.2018 19:00:00 12,0 10,0 13 7 WNW 10
17.09.2018 18:00:00 13,0 10,0 13 7 NNW 10
17.09.2018 17:00:00 - - - - - -
17.09.2018 16:00:00 16,0 9,0 16 9 N 10
17.09.2018 15:00:00 16,0 9,0 18 10 WNW 10
17.09.2018 14:00:00 15,0 10,0 11 6 NNW 10
17.09.2018 13:00:00 15,0 9,0 11 6 W 10
17.09.2018 12:00:00 15,0 9,0 9 5 NNW 10
17.09.2018 11:00:00 14,0 9,0 5 3 SSW 10
17.09.2018 10:00:00 10,0 8,0 0 0 N 10
17.09.2018 09:00:00 8,0 6,0 4 2 SSW 10
17.09.2018 08:00:00 8,0 7,0 0 0 N 10
17.09.2018 07:00:00 8,0 7,0 0 0 N 10
17.09.2018 06:00:00 8,0 7,0 0 0 N 10
17.09.2018 05:00:00 8,0 6,0 0 0 N 10
17.09.2018 04:00:00 8,0 7,0 0 0 N 10
17.09.2018 03:00:00 8,0 7,0 0 0 N 10
17.09.2018 02:00:00 8,0 7,0 0 0 N 10
17.09.2018 01:00:00 9,0 7,0 0 0 N 10
17.09.2018 00:00:00 9,0 7,0 0 0 N 10
16.09.2018 23:00:00 10,0 8,0 0 0 N 10
16.09.2018 22:00:00 10,0 9,0 0 0 N 10
16.09.2018 21:00:00 11,0 8,0 0 0 N 10
16.09.2018 20:00:00 12,0 9,0 9 5 WSW 10
16.09.2018 19:00:00 13,0 7,0 13 7 W 10
16.09.2018 18:00:00 15,0 8,0 16 9 WSW 10
16.09.2018 17:00:00 15,0 8,0 16 9 WSW 10
16.09.2018 16:00:00 16,0 9,0 15 8 W 10
16.09.2018 15:00:00 16,0 9,0 18 10 WSW 10
16.09.2018 14:00:00 17,0 10,0 18 10 WSW 10
16.09.2018 13:00:00 17,0 11,0 9 5 WSW 10
16.09.2018 12:00:00 15,0 10,0 15 8 WSW 10
16.09.2018 11:00:00 13,0 10,0 5 3 N 10
16.09.2018 10:00:00 11,0 9,0 8 4 E 10
16.09.2018 09:00:00 7,0 6,0 0 0 N 10
16.09.2018 08:00:00 7,0 6,0 5 3 ESE 10
16.09.2018 07:00:00 6,0 5,0 9 5 SSE 10
16.09.2018 06:00:00 8,0 7,0 0 0 N 10
16.09.2018 05:00:00 8,0 7,0 5 3 ESE 10
16.09.2018 04:00:00 7,0 6,0 5 3 SE 10
16.09.2018 03:00:00 7,0 6,0 8 4 SE 10
16.09.2018 02:00:00 8,0 6,0 9 5 SSE 10
16.09.2018 01:00:00 9,0 7,0 0 0 N 10
16.09.2018 00:00:00 10,0 8,0 0 0 N 10

tt = Température de l'air
td = dewpoint
ff = Vitesse du vent
dd = Direction du vent
vv = visibility

stations d'obs. à proximité